sensor_id;sensor_type;location;lat;lon;timestamp;P1;durP1;ratioP1;P2;durP2;ratioP2
16119;SDS011;12670;53.502;10.252;2023-02-28T00:02:58;9.67;;;3.37;;
16119;SDS011;12670;53.502;10.252;2023-02-28T00:06:03;10.27;;;3.10;;
16119;SDS011;12670;53.502;10.252;2023-02-28T00:09:06;6.60;;;3.30;;
16119;SDS011;12670;53.502;10.252;2023-02-28T00:12:09;5.33;;;2.80;;
16119;SDS011;12670;53.502;10.252;2023-02-28T00:15:12;11.90;;;3.27;;
16119;SDS011;12670;53.502;10.252;2023-02-28T00:18:14;6.50;;;3.47;;
16119;SDS011;12670;53.502;10.252;2023-02-28T00:21:19;11.60;;;4.07;;
16119;SDS011;12670;53.502;10.252;2023-02-28T00:24:22;7.70;;;3.47;;
16119;SDS011;12670;53.502;10.252;2023-02-28T00:27:25;9.07;;;3.40;;
16119;SDS011;12670;53.502;10.252;2023-02-28T00:30:27;6.83;;;2.77;;
16119;SDS011;12670;53.502;10.252;2023-02-28T00:33:30;9.27;;;3.10;;
16119;SDS011;12670;53.502;10.252;2023-02-28T00:36:34;9.17;;;2.90;;
16119;SDS011;12670;53.502;10.252;2023-02-28T00:39:37;6.97;;;3.23;;
16119;SDS011;12670;53.502;10.252;2023-02-28T00:42:41;8.00;;;3.17;;
16119;SDS011;12670;53.502;10.252;2023-02-28T00:45:44;7.23;;;3.47;;
16119;SDS011;12670;53.502;10.252;2023-02-28T00:48:47;7.33;;;3.30;;
16119;SDS011;12670;53.502;10.252;2023-02-28T00:51:51;5.83;;;3.17;;
16119;SDS011;12670;53.502;10.252;2023-02-28T00:54:54;6.40;;;2.87;;
16119;SDS011;12670;53.502;10.252;2023-02-28T00:57:57;8.33;;;3.30;;
16119;SDS011;12670;53.502;10.252;2023-02-28T01:00:59;8.77;;;3.00;;
16119;SDS011;12670;53.502;10.252;2023-02-28T01:04:02;7.83;;;2.90;;
16119;SDS011;12670;53.502;10.252;2023-02-28T01:07:07;7.30;;;3.20;;
16119;SDS011;12670;53.502;10.252;2023-02-28T01:10:10;6.23;;;2.73;;
16119;SDS011;12670;53.502;10.252;2023-02-28T01:13:13;5.47;;;2.50;;
16119;SDS011;12670;53.502;10.252;2023-02-28T01:16:16;7.87;;;2.67;;
16119;SDS011;12670;53.502;10.252;2023-02-28T01:19:19;5.93;;;2.97;;
16119;SDS011;12670;53.502;10.252;2023-02-28T01:22:23;5.63;;;2.83;;
16119;SDS011;12670;53.502;10.252;2023-02-28T01:25:25;13.67;;;3.37;;
16119;SDS011;12670;53.502;10.252;2023-02-28T01:28:28;7.97;;;3.07;;
16119;SDS011;12670;53.502;10.252;2023-02-28T01:31:31;6.97;;;3.23;;
16119;SDS011;12670;53.502;10.252;2023-02-28T01:34:34;11.60;;;3.10;;
16119;SDS011;12670;53.502;10.252;2023-02-28T01:37:38;6.63;;;2.93;;
16119;SDS011;12670;53.502;10.252;2023-02-28T01:40:40;8.83;;;3.37;;
16119;SDS011;12670;53.502;10.252;2023-02-28T01:43:53;8.20;;;3.20;;
16119;SDS011;12670;53.502;10.252;2023-02-28T01:47:04;7.93;;;3.17;;
16119;SDS011;12670;53.502;10.252;2023-02-28T01:50:07;7.73;;;3.17;;
16119;SDS011;12670;53.502;10.252;2023-02-28T01:53:16;5.10;;;2.57;;
16119;SDS011;12670;53.502;10.252;2023-02-28T01:56:22;5.17;;;2.60;;
16119;SDS011;12670;53.502;10.252;2023-02-28T01:59:29;6.63;;;2.77;;
16119;SDS011;12670;53.502;10.252;2023-02-28T02:02:37;6.33;;;2.90;;
16119;SDS011;12670;53.502;10.252;2023-02-28T02:05:40;6.13;;;2.77;;
16119;SDS011;12670;53.502;10.252;2023-02-28T02:08:50;4.87;;;2.40;;
16119;SDS011;12670;53.502;10.252;2023-02-28T02:11:53;8.13;;;2.30;;
16119;SDS011;12670;53.502;10.252;2023-02-28T02:15:00;4.77;;;2.57;;
16119;SDS011;12670;53.502;10.252;2023-02-28T02:18:12;7.43;;;2.43;;
16119;SDS011;12670;53.502;10.252;2023-02-28T02:25:17;4.07;;;2.10;;
16119;SDS011;12670;53.502;10.252;2023-02-28T02:28:36;5.80;;;2.37;;
16119;SDS011;12670;53.502;10.252;2023-02-28T02:32:09;5.70;;;2.50;;
16119;SDS011;12670;53.502;10.252;2023-02-28T02:35:28;4.93;;;2.33;;
16119;SDS011;12670;53.502;10.252;2023-02-28T02:38:38;4.17;;;2.20;;
16119;SDS011;12670;53.502;10.252;2023-02-28T02:41:51;5.80;;;2.43;;
16119;SDS011;12670;53.502;10.252;2023-02-28T02:44:56;4.67;;;2.10;;
16119;SDS011;12670;53.502;10.252;2023-02-28T02:48:04;5.33;;;2.40;;
16119;SDS011;12670;53.502;10.252;2023-02-28T02:51:14;7.03;;;2.30;;
16119;SDS011;12670;53.502;10.252;2023-02-28T02:54:19;4.23;;;2.27;;
16119;SDS011;12670;53.502;10.252;2023-02-28T02:57:30;6.60;;;2.17;;
16119;SDS011;12670;53.502;10.252;2023-02-28T03:00:38;6.13;;;2.50;;
16119;SDS011;12670;53.502;10.252;2023-02-28T03:03:44;5.87;;;2.10;;
16119;SDS011;12670;53.502;10.252;2023-02-28T03:06:49;6.60;;;2.40;;
16119;SDS011;12670;53.502;10.252;2023-02-28T03:09:56;4.80;;;2.30;;
16119;SDS011;12670;53.502;10.252;2023-02-28T03:13:07;8.33;;;2.30;;
16119;SDS011;12670;53.502;10.252;2023-02-28T03:16:23;5.40;;;2.30;;
16119;SDS011;12670;53.502;10.252;2023-02-28T03:19:37;5.20;;;2.10;;
16119;SDS011;12670;53.502;10.252;2023-02-28T03:22:54;7.20;;;2.53;;
16119;SDS011;12670;53.502;10.252;2023-02-28T03:26:02;5.93;;;2.50;;
16119;SDS011;12670;53.502;10.252;2023-02-28T03:29:10;7.43;;;2.60;;
16119;SDS011;12670;53.502;10.252;2023-02-28T03:32:19;11.70;;;2.33;;
16119;SDS011;12670;53.502;10.252;2023-02-28T03:35:27;6.50;;;2.37;;
16119;SDS011;12670;53.502;10.252;2023-02-28T03:38:37;8.47;;;2.43;;
16119;SDS011;12670;53.502;10.252;2023-02-28T03:41:43;4.83;;;2.03;;
16119;SDS011;12670;53.502;10.252;2023-02-28T03:44:51;6.70;;;2.47;;
16119;SDS011;12670;53.502;10.252;2023-02-28T03:47:57;5.83;;;2.37;;
16119;SDS011;12670;53.502;10.252;2023-02-28T03:51:04;3.33;;;2.00;;
16119;SDS011;12670;53.502;10.252;2023-02-28T03:54:13;7.77;;;2.73;;
16119;SDS011;12670;53.502;10.252;2023-02-28T03:57:23;8.50;;;2.23;;
16119;SDS011;12670;53.502;10.252;2023-02-28T04:00:30;3.57;;;2.20;;
16119;SDS011;12670;53.502;10.252;2023-02-28T04:03:37;3.13;;;2.10;;
16119;SDS011;12670;53.502;10.252;2023-02-28T04:06:41;4.90;;;2.20;;
16119;SDS011;12670;53.502;10.252;2023-02-28T04:09:46;7.40;;;2.00;;
16119;SDS011;12670;53.502;10.252;2023-02-28T04:12:49;6.83;;;2.40;;
16119;SDS011;12670;53.502;10.252;2023-02-28T04:15:51;5.70;;;2.50;;
16119;SDS011;12670;53.502;10.252;2023-02-28T04:18:54;5.37;;;2.20;;
16119;SDS011;12670;53.502;10.252;2023-02-28T04:22:03;4.37;;;2.13;;
16119;SDS011;12670;53.502;10.252;2023-02-28T04:25:07;3.93;;;2.10;;
16119;SDS011;12670;53.502;10.252;2023-02-28T04:28:10;4.23;;;1.90;;
16119;SDS011;12670;53.502;10.252;2023-02-28T04:31:13;5.77;;;2.27;;
16119;SDS011;12670;53.502;10.252;2023-02-28T04:34:16;7.45;;;2.55;;
16119;SDS011;12670;53.502;10.252;2023-02-28T04:37:20;5.03;;;2.43;;
16119;SDS011;12670;53.502;10.252;2023-02-28T04:40:30;4.60;;;1.97;;
16119;SDS011;12670;53.502;10.252;2023-02-28T04:43:32;7.17;;;2.70;;
16119;SDS011;12670;53.502;10.252;2023-02-28T04:46:35;8.60;;;2.80;;
16119;SDS011;12670;53.502;10.252;2023-02-28T04:49:38;7.43;;;2.63;;
16119;SDS011;12670;53.502;10.252;2023-02-28T04:52:42;5.43;;;2.47;;
16119;SDS011;12670;53.502;10.252;2023-02-28T04:55:46;3.50;;;2.20;;
16119;SDS011;12670;53.502;10.252;2023-02-28T04:58:49;5.83;;;2.20;;
16119;SDS011;12670;53.502;10.252;2023-02-28T05:01:54;6.83;;;2.40;;
16119;SDS011;12670;53.502;10.252;2023-02-28T05:04:56;5.87;;;2.47;;
16119;SDS011;12670;53.502;10.252;2023-02-28T05:07:59;7.17;;;2.40;;
16119;SDS011;12670;53.502;10.252;2023-02-28T05:11:07;5.73;;;2.63;;
16119;SDS011;12670;53.502;10.252;2023-02-28T05:14:16;3.83;;;2.23;;
16119;SDS011;12670;53.502;10.252;2023-02-28T05:17:19;4.57;;;2.20;;
16119;SDS011;12670;53.502;10.252;2023-02-28T05:20:22;6.70;;;2.40;;
16119;SDS011;12670;53.502;10.252;2023-02-28T05:23:24;4.50;;;2.23;;
16119;SDS011;12670;53.502;10.252;2023-02-28T05:26:29;4.57;;;2.23;;
16119;SDS011;12670;53.502;10.252;2023-02-28T05:29:32;5.67;;;2.27;;
16119;SDS011;12670;53.502;10.252;2023-02-28T05:32:35;3.63;;;2.00;;
16119;SDS011;12670;53.502;10.252;2023-02-28T05:35:38;5.67;;;2.30;;
16119;SDS011;12670;53.502;10.252;2023-02-28T05:38:41;5.20;;;2.13;;
16119;SDS011;12670;53.502;10.252;2023-02-28T05:41:45;4.33;;;2.10;;
16119;SDS011;12670;53.502;10.252;2023-02-28T05:44:48;5.37;;;2.60;;
16119;SDS011;12670;53.502;10.252;2023-02-28T05:47:53;4.27;;;2.13;;
16119;SDS011;12670;53.502;10.252;2023-02-28T05:50:56;5.27;;;2.10;;
16119;SDS011;12670;53.502;10.252;2023-02-28T05:54:00;11.97;;;2.40;;
16119;SDS011;12670;53.502;10.252;2023-02-28T05:57:04;7.50;;;1.93;;
16119;SDS011;12670;53.502;10.252;2023-02-28T06:00:23;4.00;;;2.30;;
16119;SDS011;12670;53.502;10.252;2023-02-28T06:03:26;6.10;;;2.33;;
16119;SDS011;12670;53.502;10.252;2023-02-28T06:06:29;6.90;;;2.40;;
16119;SDS011;12670;53.502;10.252;2023-02-28T06:09:32;6.47;;;2.30;;
16119;SDS011;12670;53.502;10.252;2023-02-28T06:12:36;6.23;;;2.33;;
16119;SDS011;12670;53.502;10.252;2023-02-28T06:15:40;5.10;;;2.50;;
16119;SDS011;12670;53.502;10.252;2023-02-28T06:18:43;5.23;;;2.43;;
16119;SDS011;12670;53.502;10.252;2023-02-28T06:21:47;4.97;;;2.40;;
16119;SDS011;12670;53.502;10.252;2023-02-28T06:24:51;4.80;;;2.60;;
16119;SDS011;12670;53.502;10.252;2023-02-28T06:27:57;7.70;;;2.27;;
16119;SDS011;12670;53.502;10.252;2023-02-28T06:31:04;6.10;;;2.63;;
16119;SDS011;12670;53.502;10.252;2023-02-28T06:34:09;4.80;;;2.27;;
16119;SDS011;12670;53.502;10.252;2023-02-28T06:37:12;8.50;;;2.70;;
16119;SDS011;12670;53.502;10.252;2023-02-28T06:40:15;5.97;;;2.30;;
16119;SDS011;12670;53.502;10.252;2023-02-28T06:43:19;5.13;;;2.50;;
16119;SDS011;12670;53.502;10.252;2023-02-28T06:46:22;9.10;;;2.87;;
16119;SDS011;12670;53.502;10.252;2023-02-28T06:49:25;5.30;;;2.40;;
16119;SDS011;12670;53.502;10.252;2023-02-28T06:52:28;5.83;;;2.70;;
16119;SDS011;12670;53.502;10.252;2023-02-28T06:55:31;4.00;;;2.60;;
16119;SDS011;12670;53.502;10.252;2023-02-28T06:58:35;4.53;;;2.50;;
16119;SDS011;12670;53.502;10.252;2023-02-28T07:01:40;4.27;;;2.53;;
16119;SDS011;12670;53.502;10.252;2023-02-28T07:04:43;4.77;;;2.60;;
16119;SDS011;12670;53.502;10.252;2023-02-28T07:07:46;8.43;;;3.00;;
16119;SDS011;12670;53.502;10.252;2023-02-28T07:10:51;4.43;;;2.90;;
16119;SDS011;12670;53.502;10.252;2023-02-28T07:13:55;5.33;;;2.90;;
16119;SDS011;12670;53.502;10.252;2023-02-28T07:16:59;6.77;;;2.83;;
16119;SDS011;12670;53.502;10.252;2023-02-28T07:20:01;6.33;;;3.40;;
16119;SDS011;12670;53.502;10.252;2023-02-28T07:23:05;6.07;;;3.10;;
16119;SDS011;12670;53.502;10.252;2023-02-28T07:26:10;6.53;;;3.20;;
16119;SDS011;12670;53.502;10.252;2023-02-28T07:29:17;15.87;;;3.60;;
16119;SDS011;12670;53.502;10.252;2023-02-28T07:32:20;6.23;;;3.17;;
16119;SDS011;12670;53.502;10.252;2023-02-28T07:35:22;9.13;;;3.50;;
16119;SDS011;12670;53.502;10.252;2023-02-28T07:38:25;9.57;;;3.97;;
16119;SDS011;12670;53.502;10.252;2023-02-28T07:41:28;7.17;;;3.90;;
16119;SDS011;12670;53.502;10.252;2023-02-28T07:44:33;8.93;;;4.73;;
16119;SDS011;12670;53.502;10.252;2023-02-28T07:47:35;13.87;;;5.27;;
16119;SDS011;12670;53.502;10.252;2023-02-28T07:50:38;10.23;;;4.93;;
16119;SDS011;12670;53.502;10.252;2023-02-28T07:53:41;12.77;;;5.20;;
16119;SDS011;12670;53.502;10.252;2023-02-28T07:56:43;18.83;;;7.87;;
16119;SDS011;12670;53.502;10.252;2023-02-28T07:59:47;17.20;;;8.07;;
16119;SDS011;12670;53.502;10.252;2023-02-28T08:02:50;19.43;;;7.77;;
16119;SDS011;12670;53.502;10.252;2023-02-28T08:05:53;14.00;;;7.70;;
16119;SDS011;12670;53.502;10.252;2023-02-28T08:08:55;15.97;;;7.83;;
16119;SDS011;12670;53.502;10.252;2023-02-28T08:11:58;16.80;;;7.03;;
16119;SDS011;12670;53.502;10.252;2023-02-28T08:15:02;15.40;;;6.83;;
16119;SDS011;12670;53.502;10.252;2023-02-28T08:18:06;11.00;;;4.90;;
16119;SDS011;12670;53.502;10.252;2023-02-28T08:21:11;10.97;;;4.53;;
16119;SDS011;12670;53.502;10.252;2023-02-28T08:24:13;9.77;;;3.87;;
16119;SDS011;12670;53.502;10.252;2023-02-28T08:27:16;7.93;;;4.20;;
16119;SDS011;12670;53.502;10.252;2023-02-28T08:30:20;12.43;;;5.27;;
16119;SDS011;12670;53.502;10.252;2023-02-28T08:33:23;8.30;;;4.27;;
16119;SDS011;12670;53.502;10.252;2023-02-28T08:36:26;8.53;;;4.50;;
16119;SDS011;12670;53.502;10.252;2023-02-28T08:39:30;10.77;;;5.20;;
16119;SDS011;12670;53.502;10.252;2023-02-28T08:42:32;6.20;;;3.40;;
16119;SDS011;12670;53.502;10.252;2023-02-28T08:45:36;11.40;;;4.07;;
16119;SDS011;12670;53.502;10.252;2023-02-28T08:48:39;8.43;;;3.87;;
16119;SDS011;12670;53.502;10.252;2023-02-28T08:51:42;4.97;;;2.97;;
16119;SDS011;12670;53.502;10.252;2023-02-28T08:54:46;6.50;;;2.90;;
16119;SDS011;12670;53.502;10.252;2023-02-28T08:57:49;8.40;;;3.50;;
16119;SDS011;12670;53.502;10.252;2023-02-28T09:00:53;7.40;;;3.10;;
16119;SDS011;12670;53.502;10.252;2023-02-28T09:03:56;9.03;;;3.00;;
16119;SDS011;12670;53.502;10.252;2023-02-28T09:07:00;5.97;;;3.07;;
16119;SDS011;12670;53.502;10.252;2023-02-28T09:10:03;4.53;;;3.00;;
16119;SDS011;12670;53.502;10.252;2023-02-28T09:13:06;6.10;;;2.70;;
16119;SDS011;12670;53.502;10.252;2023-02-28T09:16:11;7.50;;;2.70;;
16119;SDS011;12670;53.502;10.252;2023-02-28T09:19:15;5.00;;;2.57;;
16119;SDS011;12670;53.502;10.252;2023-02-28T09:22:18;6.90;;;2.67;;
16119;SDS011;12670;53.502;10.252;2023-02-28T09:25:21;6.90;;;2.93;;
16119;SDS011;12670;53.502;10.252;2023-02-28T09:28:23;4.30;;;2.33;;
16119;SDS011;12670;53.502;10.252;2023-02-28T09:31:28;5.47;;;2.70;;
16119;SDS011;12670;53.502;10.252;2023-02-28T09:34:31;4.53;;;2.50;;
16119;SDS011;12670;53.502;10.252;2023-02-28T09:37:33;3.97;;;2.20;;
16119;SDS011;12670;53.502;10.252;2023-02-28T09:40:36;4.43;;;2.33;;
16119;SDS011;12670;53.502;10.252;2023-02-28T09:43:43;4.40;;;2.43;;
16119;SDS011;12670;53.502;10.252;2023-02-28T09:46:51;6.63;;;2.33;;
16119;SDS011;12670;53.502;10.252;2023-02-28T09:49:58;6.37;;;1.93;;
16119;SDS011;12670;53.502;10.252;2023-02-28T09:53:11;3.37;;;1.60;;
16119;SDS011;12670;53.502;10.252;2023-02-28T09:56:20;2.37;;;1.60;;
16119;SDS011;12670;53.502;10.252;2023-02-28T09:59:34;4.30;;;1.97;;
16119;SDS011;12670;53.502;10.252;2023-02-28T10:03:06;3.33;;;1.97;;
16119;SDS011;12670;53.502;10.252;2023-02-28T10:06:21;2.50;;;1.70;;
16119;SDS011;12670;53.502;10.252;2023-02-28T10:09:29;3.83;;;1.60;;
16119;SDS011;12670;53.502;10.252;2023-02-28T10:12:35;2.53;;;1.50;;
16119;SDS011;12670;53.502;10.252;2023-02-28T10:15:42;2.60;;;1.23;;
16119;SDS011;12670;53.502;10.252;2023-02-28T10:18:51;5.47;;;1.70;;
16119;SDS011;12670;53.502;10.252;2023-02-28T10:21:59;3.83;;;1.40;;
16119;SDS011;12670;53.502;10.252;2023-02-28T10:25:05;2.37;;;1.37;;
16119;SDS011;12670;53.502;10.252;2023-02-28T10:28:20;2.30;;;1.30;;
16119;SDS011;12670;53.502;10.252;2023-02-28T10:31:22;6.43;;;1.80;;
16119;SDS011;12670;53.502;10.252;2023-02-28T10:34:28;3.43;;;1.40;;
16119;SDS011;12670;53.502;10.252;2023-02-28T10:37:30;3.53;;;1.50;;
16119;SDS011;12670;53.502;10.252;2023-02-28T10:40:39;3.30;;;1.33;;
16119;SDS011;12670;53.502;10.252;2023-02-28T10:43:42;3.53;;;1.60;;
16119;SDS011;12670;53.502;10.252;2023-02-28T10:46:46;2.70;;;1.30;;
16119;SDS011;12670;53.502;10.252;2023-02-28T10:49:52;3.10;;;1.43;;
16119;SDS011;12670;53.502;10.252;2023-02-28T10:52:54;2.07;;;1.20;;
16119;SDS011;12670;53.502;10.252;2023-02-28T10:56:14;3.13;;;1.57;;
16119;SDS011;12670;53.502;10.252;2023-02-28T10:59:28;3.37;;;1.30;;
16119;SDS011;12670;53.502;10.252;2023-02-28T11:02:33;2.77;;;1.40;;
16119;SDS011;12670;53.502;10.252;2023-02-28T11:05:39;3.60;;;1.50;;
16119;SDS011;12670;53.502;10.252;2023-02-28T11:08:48;2.60;;;1.10;;
16119;SDS011;12670;53.502;10.252;2023-02-28T11:11:53;3.13;;;1.30;;
16119;SDS011;12670;53.502;10.252;2023-02-28T11:14:57;3.73;;;1.67;;
16119;SDS011;12670;53.502;10.252;2023-02-28T11:18:04;3.10;;;1.40;;
16119;SDS011;12670;53.502;10.252;2023-02-28T11:21:24;2.57;;;1.40;;
16119;SDS011;12670;53.502;10.252;2023-02-28T11:24:30;2.60;;;1.50;;
16119;SDS011;12670;53.502;10.252;2023-02-28T11:27:45;2.47;;;1.37;;
16119;SDS011;12670;53.502;10.252;2023-02-28T11:30:59;3.90;;;1.50;;
16119;SDS011;12670;53.502;10.252;2023-02-28T11:34:20;5.07;;;1.30;;
16119;SDS011;12670;53.502;10.252;2023-02-28T11:37:28;3.17;;;1.50;;
16119;SDS011;12670;53.502;10.252;2023-02-28T11:40:34;2.47;;;1.40;;
16119;SDS011;12670;53.502;10.252;2023-02-28T11:43:58;5.80;;;1.30;;
16119;SDS011;12670;53.502;10.252;2023-02-28T11:47:14;2.67;;;1.40;;
16119;SDS011;12670;53.502;10.252;2023-02-28T11:50:27;3.13;;;1.53;;
16119;SDS011;12670;53.502;10.252;2023-02-28T11:57:22;6.20;;;1.60;;
16119;SDS011;12670;53.502;10.252;2023-02-28T12:00:45;2.87;;;1.50;;
16119;SDS011;12670;53.502;10.252;2023-02-28T12:04:12;4.10;;;1.67;;
16119;SDS011;12670;53.502;10.252;2023-02-28T12:07:25;2.40;;;1.47;;
16119;SDS011;12670;53.502;10.252;2023-02-28T12:10:42;2.30;;;1.40;;
16119;SDS011;12670;53.502;10.252;2023-02-28T12:17:29;4.13;;;1.80;;
16119;SDS011;12670;53.502;10.252;2023-02-28T12:20:45;3.33;;;1.53;;
16119;SDS011;12670;53.502;10.252;2023-02-28T12:27:26;2.30;;;1.57;;
16119;SDS011;12670;53.502;10.252;2023-02-28T12:30:35;5.53;;;1.57;;
16119;SDS011;12670;53.502;10.252;2023-02-28T12:33:42;6.03;;;1.40;;
16119;SDS011;12670;53.502;10.252;2023-02-28T12:36:48;4.20;;;1.80;;
16119;SDS011;12670;53.502;10.252;2023-02-28T12:39:55;3.37;;;1.57;;
16119;SDS011;12670;53.502;10.252;2023-02-28T12:43:04;2.97;;;1.60;;
16119;SDS011;12670;53.502;10.252;2023-02-28T12:46:11;2.87;;;1.57;;
16119;SDS011;12670;53.502;10.252;2023-02-28T12:49:21;4.30;;;1.53;;
16119;SDS011;12670;53.502;10.252;2023-02-28T12:52:29;2.40;;;1.33;;
16119;SDS011;12670;53.502;10.252;2023-02-28T12:55:43;3.00;;;1.70;;
16119;SDS011;12670;53.502;10.252;2023-02-28T12:58:54;4.87;;;1.80;;
16119;SDS011;12670;53.502;10.252;2023-02-28T13:02:09;6.43;;;1.50;;
16119;SDS011;12670;53.502;10.252;2023-02-28T13:06:05;3.20;;;1.60;;
16119;SDS011;12670;53.502;10.252;2023-02-28T13:09:22;2.27;;;1.43;;
16119;SDS011;12670;53.502;10.252;2023-02-28T13:12:25;1.87;;;1.30;;
16119;SDS011;12670;53.502;10.252;2023-02-28T13:15:29;2.80;;;1.50;;
16119;SDS011;12670;53.502;10.252;2023-02-28T13:18:36;3.50;;;1.60;;
16119;SDS011;12670;53.502;10.252;2023-02-28T13:21:41;4.87;;;1.47;;
16119;SDS011;12670;53.502;10.252;2023-02-28T13:24:47;4.03;;;1.73;;
16119;SDS011;12670;53.502;10.252;2023-02-28T13:27:52;4.50;;;1.60;;
16119;SDS011;12670;53.502;10.252;2023-02-28T13:31:05;3.23;;;1.77;;
16119;SDS011;12670;53.502;10.252;2023-02-28T13:34:15;4.47;;;1.70;;
16119;SDS011;12670;53.502;10.252;2023-02-28T13:40:44;2.47;;;1.60;;
16119;SDS011;12670;53.502;10.252;2023-02-28T13:44:00;3.87;;;1.60;;
16119;SDS011;12670;53.502;10.252;2023-02-28T13:47:28;3.40;;;1.60;;
16119;SDS011;12670;53.502;10.252;2023-02-28T13:50:34;6.47;;;1.90;;
16119;SDS011;12670;53.502;10.252;2023-02-28T13:53:49;3.43;;;1.70;;
16119;SDS011;12670;53.502;10.252;2023-02-28T13:57:04;2.77;;;1.80;;
16119;SDS011;12670;53.502;10.252;2023-02-28T14:00:20;3.10;;;1.70;;
16119;SDS011;12670;53.502;10.252;2023-02-28T14:03:41;3.10;;;1.60;;
16119;SDS011;12670;53.502;10.252;2023-02-28T14:06:57;2.60;;;1.70;;
16119;SDS011;12670;53.502;10.252;2023-02-28T14:10:03;3.37;;;1.80;;
16119;SDS011;12670;53.502;10.252;2023-02-28T14:13:13;4.50;;;1.53;;
16119;SDS011;12670;53.502;10.252;2023-02-28T14:16:36;4.67;;;2.00;;
16119;SDS011;12670;53.502;10.252;2023-02-28T14:19:45;3.20;;;1.57;;
16119;SDS011;12670;53.502;10.252;2023-02-28T14:22:52;2.63;;;1.63;;
16119;SDS011;12670;53.502;10.252;2023-02-28T14:26:07;3.83;;;1.73;;
16119;SDS011;12670;53.502;10.252;2023-02-28T14:29:26;4.13;;;1.80;;
16119;SDS011;12670;53.502;10.252;2023-02-28T14:33:00;4.43;;;1.80;;
16119;SDS011;12670;53.502;10.252;2023-02-28T14:36:20;5.00;;;1.60;;
16119;SDS011;12670;53.502;10.252;2023-02-28T14:39:26;3.93;;;1.77;;
16119;SDS011;12670;53.502;10.252;2023-02-28T14:42:32;4.13;;;1.57;;
16119;SDS011;12670;53.502;10.252;2023-02-28T14:45:36;3.23;;;1.87;;
16119;SDS011;12670;53.502;10.252;2023-02-28T14:48:39;4.20;;;1.50;;
16119;SDS011;12670;53.502;10.252;2023-02-28T14:51:43;2.13;;;1.47;;
16119;SDS011;12670;53.502;10.252;2023-02-28T14:54:51;4.77;;;1.57;;
16119;SDS011;12670;53.502;10.252;2023-02-28T14:57:56;1.93;;;1.40;;
16119;SDS011;12670;53.502;10.252;2023-02-28T15:01:01;2.03;;;1.40;;
16119;SDS011;12670;53.502;10.252;2023-02-28T15:04:06;2.47;;;1.30;;
16119;SDS011;12670;53.502;10.252;2023-02-28T15:07:22;1.50;;;1.17;;
16119;SDS011;12670;53.502;10.252;2023-02-28T15:10:29;3.20;;;1.80;;
16119;SDS011;12670;53.502;10.252;2023-02-28T15:13:34;3.43;;;1.50;;
16119;SDS011;12670;53.502;10.252;2023-02-28T15:16:41;3.33;;;1.60;;
16119;SDS011;12670;53.502;10.252;2023-02-28T15:19:47;5.07;;;1.87;;
16119;SDS011;12670;53.502;10.252;2023-02-28T15:22:54;3.97;;;1.63;;
16119;SDS011;12670;53.502;10.252;2023-02-28T15:25:59;4.27;;;1.90;;
16119;SDS011;12670;53.502;10.252;2023-02-28T15:29:04;4.13;;;1.63;;
16119;SDS011;12670;53.502;10.252;2023-02-28T15:32:16;3.93;;;1.67;;
16119;SDS011;12670;53.502;10.252;2023-02-28T15:35:27;2.60;;;1.50;;
16119;SDS011;12670;53.502;10.252;2023-02-28T15:38:34;3.83;;;1.90;;
16119;SDS011;12670;53.502;10.252;2023-02-28T15:41:38;3.77;;;2.00;;
16119;SDS011;12670;53.502;10.252;2023-02-28T15:44:41;3.43;;;1.87;;
16119;SDS011;12670;53.502;10.252;2023-02-28T15:47:44;3.07;;;2.00;;
16119;SDS011;12670;53.502;10.252;2023-02-28T15:50:49;5.77;;;1.77;;
16119;SDS011;12670;53.502;10.252;2023-02-28T15:53:56;5.20;;;2.40;;
16119;SDS011;12670;53.502;10.252;2023-02-28T15:57:02;3.70;;;1.90;;
16119;SDS011;12670;53.502;10.252;2023-02-28T16:00:10;3.70;;;1.80;;
16119;SDS011;12670;53.502;10.252;2023-02-28T16:03:25;4.90;;;2.00;;
16119;SDS011;12670;53.502;10.252;2023-02-28T16:06:32;4.43;;;1.90;;
16119;SDS011;12670;53.502;10.252;2023-02-28T16:09:41;3.60;;;1.87;;
16119;SDS011;12670;53.502;10.252;2023-02-28T16:12:44;2.90;;;2.00;;
16119;SDS011;12670;53.502;10.252;2023-02-28T16:15:47;4.00;;;2.07;;
16119;SDS011;12670;53.502;10.252;2023-02-28T16:18:52;5.20;;;2.60;;
16119;SDS011;12670;53.502;10.252;2023-02-28T16:21:55;5.23;;;2.93;;
16119;SDS011;12670;53.502;10.252;2023-02-28T16:25:00;8.33;;;2.73;;
16119;SDS011;12670;53.502;10.252;2023-02-28T16:28:06;7.45;;;2.90;;
16119;SDS011;12670;53.502;10.252;2023-02-28T16:31:14;6.83;;;2.90;;
16119;SDS011;12670;53.502;10.252;2023-02-28T16:34:17;8.17;;;2.90;;
16119;SDS011;12670;53.502;10.252;2023-02-28T16:37:20;9.63;;;3.10;;
16119;SDS011;12670;53.502;10.252;2023-02-28T16:40:25;6.17;;;2.70;;
16119;SDS011;12670;53.502;10.252;2023-02-28T16:43:29;5.87;;;2.57;;
16119;SDS011;12670;53.502;10.252;2023-02-28T16:46:33;6.50;;;2.30;;
16119;SDS011;12670;53.502;10.252;2023-02-28T16:49:37;6.93;;;3.23;;
16119;SDS011;12670;53.502;10.252;2023-02-28T16:52:40;6.70;;;3.60;;
16119;SDS011;12670;53.502;10.252;2023-02-28T16:55:44;6.53;;;3.33;;
16119;SDS011;12670;53.502;10.252;2023-02-28T16:58:48;9.77;;;2.70;;
16119;SDS011;12670;53.502;10.252;2023-02-28T17:01:53;6.60;;;3.33;;
16119;SDS011;12670;53.502;10.252;2023-02-28T17:04:58;7.67;;;5.03;;
16119;SDS011;12670;53.502;10.252;2023-02-28T17:08:00;9.00;;;5.67;;
16119;SDS011;12670;53.502;10.252;2023-02-28T17:11:04;10.07;;;5.97;;
16119;SDS011;12670;53.502;10.252;2023-02-28T17:14:07;9.63;;;6.40;;
16119;SDS011;12670;53.502;10.252;2023-02-28T17:17:10;7.23;;;4.13;;
16119;SDS011;12670;53.502;10.252;2023-02-28T17:20:20;13.40;;;4.10;;
16119;SDS011;12670;53.502;10.252;2023-02-28T17:23:24;8.33;;;3.80;;
16119;SDS011;12670;53.502;10.252;2023-02-28T17:26:28;7.30;;;3.60;;
16119;SDS011;12670;53.502;10.252;2023-02-28T17:29:32;5.47;;;3.00;;
16119;SDS011;12670;53.502;10.252;2023-02-28T17:32:35;8.43;;;3.07;;
16119;SDS011;12670;53.502;10.252;2023-02-28T17:35:38;9.17;;;3.30;;
16119;SDS011;12670;53.502;10.252;2023-02-28T17:38:41;6.57;;;3.20;;
16119;SDS011;12670;53.502;10.252;2023-02-28T17:41:45;10.53;;;2.70;;
16119;SDS011;12670;53.502;10.252;2023-02-28T17:44:48;6.97;;;2.63;;
16119;SDS011;12670;53.502;10.252;2023-02-28T17:47:51;4.53;;;2.50;;
16119;SDS011;12670;53.502;10.252;2023-02-28T17:50:53;7.77;;;3.03;;
16119;SDS011;12670;53.502;10.252;2023-02-28T17:53:56;8.30;;;3.23;;
16119;SDS011;12670;53.502;10.252;2023-02-28T17:57:01;8.30;;;3.70;;
16119;SDS011;12670;53.502;10.252;2023-02-28T18:00:05;8.90;;;3.17;;
16119;SDS011;12670;53.502;10.252;2023-02-28T18:03:08;6.93;;;2.93;;
16119;SDS011;12670;53.502;10.252;2023-02-28T18:06:13;7.60;;;2.70;;
16119;SDS011;12670;53.502;10.252;2023-02-28T18:09:20;8.33;;;3.20;;
16119;SDS011;12670;53.502;10.252;2023-02-28T18:12:25;10.40;;;3.00;;
16119;SDS011;12670;53.502;10.252;2023-02-28T18:15:28;5.70;;;2.77;;
16119;SDS011;12670;53.502;10.252;2023-02-28T18:18:31;5.73;;;2.70;;
16119;SDS011;12670;53.502;10.252;2023-02-28T18:21:34;6.57;;;2.97;;
16119;SDS011;12670;53.502;10.252;2023-02-28T18:24:36;7.30;;;3.20;;
16119;SDS011;12670;53.502;10.252;2023-02-28T18:27:41;10.17;;;2.93;;
16119;SDS011;12670;53.502;10.252;2023-02-28T18:30:54;6.53;;;3.23;;
16119;SDS011;12670;53.502;10.252;2023-02-28T18:33:56;6.67;;;2.90;;
16119;SDS011;12670;53.502;10.252;2023-02-28T18:37:00;9.33;;;3.53;;
16119;SDS011;12670;53.502;10.252;2023-02-28T18:40:03;6.40;;;2.77;;
16119;SDS011;12670;53.502;10.252;2023-02-28T18:43:08;6.73;;;2.80;;
16119;SDS011;12670;53.502;10.252;2023-02-28T18:46:12;5.63;;;2.60;;